Time;durP1;ratioP1;P1;durP2;ratioP2;P2;SDS_P1;SDS_P2;PMS_P1;PMS_P2;Temp;Humidity;BMP_temperature;BMP_pressure;BME280_temperature;BME280_humidity;BME280_pressure;Samples;Min_cycle;Max_cycle;Signal;HPM_P1;HPM_P2
2021/12/20 00:02:02;;;;;;;26.13;18.80;;;;;;;5.97;86.25;102217.19;4936281;29;20051;-65
2021/12/20 00:04:29;;;;;;;27.60;18.85;;;;;;;6.29;86.18;102228.41;4916997;29;20051;-65
2021/12/20 00:06:57;;;;;;;28.45;17.75;;;;;;;6.22;85.19;102222.28;4918330;29;20443;-65
2021/12/20 00:09:24;;;;;;;24.88;18.27;;;;;;;6.24;85.54;102220.13;4918244;29;20052;-65
2021/12/20 00:11:51;;;;;;;25.38;18.00;;;;;;;6.33;84.88;102210.44;4918366;29;20056;-66
2021/12/20 00:14:19;;;;;;;27.10;19.17;;;;;;;6.32;84.92;102212.31;4918273;29;20134;-65
2021/12/20 00:16:46;;;;;;;28.65;19.38;;;;;;;6.29;85.23;102210.09;4916865;29;20044;-65
2021/12/20 00:19:14;;;;;;;28.55;19.48;;;;;;;6.40;84.68;102216.53;4917076;29;20044;-67
2021/12/20 00:21:41;;;;;;;25.60;18.08;;;;;;;6.41;83.65;102219.03;4917179;29;20056;-65
2021/12/20 00:24:09;;;;;;;27.33;18.73;;;;;;;6.32;84.58;102208.75;4918118;29;20052;-65
2021/12/20 00:26:37;;;;;;;26.98;19.13;;;;;;;6.12;85.54;102214.69;4917402;29;20121;-65
2021/12/20 00:29:04;;;;;;;27.33;19.42;;;;;;;6.17;85.44;102208.50;4918527;29;20070;-65
2021/12/20 00:31:31;;;;;;;28.52;20.00;;;;;;;6.18;85.58;102207.41;4918469;29;20075;-65
2021/12/20 00:33:58;;;;;;;28.15;19.80;;;;;;;6.10;86.03;102200.44;4918260;29;20052;-65
2021/12/20 00:36:27;;;;;;;28.33;20.25;;;;;;;6.06;86.29;102204.78;4917930;29;20055;-66
2021/12/20 00:41:40;;;;;;;28.80;19.30;;;;;;;6.22;85.70;102209.44;4921727;29;20048;-65
2021/12/20 00:44:07;;;;;;;25.35;17.42;;;;;;;6.20;85.66;102205.28;4921420;29;20056;-65
2021/12/20 00:46:53;;;;;;;25.52;17.90;;;;;;;6.23;85.53;102204.75;4919483;29;20384;-65
2021/12/20 00:49:20;;;;;;;23.48;17.17;;;;;;;6.27;85.53;102204.03;4921531;29;20059;-66
2021/12/20 00:51:48;;;;;;;25.65;18.00;;;;;;;6.25;85.46;102200.72;4921312;29;20066;-66
2021/12/20 00:54:15;;;;;;;26.35;18.40;;;;;;;6.31;84.85;102196.16;4920988;29;20052;-65
2021/12/20 00:56:42;;;;;;;24.92;17.98;;;;;;;6.41;84.80;102197.16;4904325;29;20064;-66
2021/12/20 00:59:09;;;;;;;24.67;17.60;;;;;;;6.32;84.71;102195.06;4921182;29;20047;-66
2021/12/20 01:01:37;;;;;;;25.60;18.00;;;;;;;6.32;85.19;102192.34;4921436;29;20071;-65
2021/12/20 01:04:04;;;;;;;23.33;16.80;;;;;;;6.36;85.19;102196.25;4938495;29;20066;-66
2021/12/20 01:06:32;;;;;;;24.25;17.08;;;;;;;6.31;85.28;102191.50;4938354;29;20079;-66
2021/12/20 01:09:01;;;;;;;23.30;17.02;;;;;;;6.34;85.33;102192.91;4939841;29;20044;-65
2021/12/20 01:11:29;;;;;;;25.17;16.95;;;;;;;6.17;85.69;102189.34;4939994;29;20056;-65
2021/12/20 01:13:59;;;;;;;24.35;17.38;;;;;;;6.17;86.20;102189.34;4939939;29;20052;-66
2021/12/20 01:16:32;;;;;;;24.35;17.33;;;;;;;6.32;85.95;102186.84;4938539;29;20526;-66
2021/12/20 01:19:00;;;;;;;22.13;16.90;;;;;;;6.04;86.12;102184.19;4953847;29;20373;-66
2021/12/20 01:21:29;;;;;;;22.40;16.63;;;;;;;5.99;86.51;102181.38;4954064;29;20455;-66
2021/12/20 01:23:57;;;;;;;22.45;16.67;;;;;;;6.00;86.53;102183.84;4939827;29;20059;-65
2021/12/20 01:26:24;;;;;;;21.05;15.98;;;;;;;6.16;85.82;102180.31;4939661;29;20515;-66
2021/12/20 01:28:51;;;;;;;22.45;16.55;;;;;;;6.26;85.03;102175.00;4939943;29;20048;-65
2021/12/20 01:31:18;;;;;;;22.13;17.05;;;;;;;6.28;85.46;102169.28;4939634;29;20048;-66
2021/12/20 01:33:46;;;;;;;22.88;17.42;;;;;;;6.27;84.71;102165.72;4953627;29;20661;-66
2021/12/20 01:36:13;;;;;;;22.60;17.45;;;;;;;6.21;84.70;102172.19;4938342;29;20525;-66
2021/12/20 01:38:40;;;;;;;22.67;17.48;;;;;;;6.24;85.07;102173.59;4938117;29;20051;-65
2021/12/20 01:41:09;;;;;;;24.40;17.25;;;;;;;6.21;84.60;102182.28;4939429;29;20047;-65
2021/12/20 01:43:38;;;;;;;25.73;18.23;;;;;;;6.14;85.30;102176.16;4939542;29;20051;-65
2021/12/20 01:46:05;;;;;;;25.63;17.05;;;;;;;6.09;85.65;102176.06;4939167;29;20056;-65
2021/12/20 01:48:33;;;;;;;23.90;17.63;;;;;;;6.02;85.77;102178.13;4939360;29;20048;-65
2021/12/20 01:53:27;;;;;;;24.98;18.08;;;;;;;6.08;86.57;102166.22;4953859;29;20645;-65
2021/12/20 01:55:55;;;;;;;25.42;18.90;;;;;;;5.95;86.33;102170.09;4937732;29;20060;-65
2021/12/20 01:58:24;;;;;;;27.17;19.60;;;;;;;5.98;86.65;102164.13;4937908;29;20515;-65
2021/12/20 02:01:03;;;;;;;27.50;19.35;;;;;;;6.30;85.78;102172.59;4939231;29;20055;-65
2021/12/20 02:03:33;;;;;;;26.93;19.47;;;;;;;6.40;84.70;102173.59;4925974;29;20059;-65
2021/12/20 02:06:05;;;;;;;25.77;18.63;;;;;;;6.24;84.43;102162.66;4918680;29;20052;-64
2021/12/20 02:08:32;;;;;;;27.73;19.33;;;;;;;5.99;85.95;102160.34;4920008;29;20052;-64
2021/12/20 02:11:03;;;;;;;27.65;20.05;;;;;;;6.21;85.65;102150.28;4918668;29;20070;-66
2021/12/20 02:13:30;;;;;;;25.30;19.17;;;;;;;6.32;84.39;102162.22;4920002;29;20376;-65
2021/12/20 02:15:59;;;;;;;26.67;20.10;;;;;;;6.47;83.99;102166.03;4919798;29;20052;-65
2021/12/20 02:18:30;;;;;;;30.08;21.30;;;;;;;6.45;83.54;102157.22;4918403;29;20056;-66
2021/12/20 02:20:59;;;;;;;28.25;20.33;;;;;;;6.42;83.46;102155.00;4919581;29;20051;-65
2021/12/20 02:23:26;;;;;;;29.65;20.95;;;;;;;6.47;83.09;102160.56;4919513;29;20060;-65
2021/12/20 02:25:54;;;;;;;26.35;19.35;;;;;;;6.37;82.71;102152.19;4919369;29;20051;-65
2021/12/20 02:28:23;;;;;;;25.98;19.45;;;;;;;6.30;83.14;102157.00;4919636;29;20064;-65
2021/12/20 02:38:59;;;;;;;30.98;23.15;;;;;;;6.37;83.66;102152.19;4919272;29;20052;-65
2021/12/20 02:41:32;;;;;;;32.20;24.13;;;;;;;6.32;83.33;102149.38;4918170;29;20064;-65
2021/12/20 02:44:05;;;;;;;30.20;22.67;;;;;;;6.29;82.60;102166.31;4919285;29;20052;-66
2021/12/20 02:49:05;;;;;;;31.50;23.55;;;;;;;6.18;83.95;102153.53;4919477;29;20056;-65
2021/12/20 02:51:33;;;;;;;33.88;24.65;;;;;;;6.39;83.44;102149.22;4919318;29;20385;-66
2021/12/20 02:54:02;;;;;;;32.20;23.90;;;;;;;6.35;82.37;102135.19;4918080;29;20063;-66
2021/12/20 02:56:30;;;;;;;30.50;23.10;;;;;;;6.17;83.24;102145.59;4919315;29;20048;-66
2021/12/20 02:58:57;;;;;;;33.75;23.90;;;;;;;6.26;82.65;102147.63;4919398;29;20055;-65
2021/12/20 03:01:25;;;;;;;32.00;24.17;;;;;;;6.12;83.94;102148.25;4917757;29;20523;-65
2021/12/20 03:03:54;;;;;;;31.90;23.80;;;;;;;5.99;84.12;102143.09;4933974;29;20055;-65
2021/12/20 03:06:41;;;;;;;33.20;23.83;;;;;;;6.12;83.92;102138.13;4938088;29;20048;-66
2021/12/20 03:09:14;;;;;;;31.73;23.52;;;;;;;6.13;83.93;102138.94;4936973;29;20295;-65
2021/12/20 03:11:46;;;;;;;31.02;23.20;;;;;;;6.20;83.54;102142.34;4937135;29;20062;-65
2021/12/20 03:14:21;;;;;;;34.35;24.25;;;;;;;6.19;83.74;102132.50;4938165;29;20062;-66
2021/12/20 03:16:48;;;;;;;34.95;24.27;;;;;;;6.23;83.87;102126.25;4937622;29;20380;-66
2021/12/20 03:19:15;;;;;;;36.00;26.27;;;;;;;6.14;84.69;102119.53;4937774;29;20062;-66
2021/12/20 03:21:42;;;;;;;39.92;28.95;;;;;;;6.32;83.90;102115.72;4920464;29;20059;-67
2021/12/20 03:24:10;;;;;;;35.63;25.95;;;;;;;6.43;83.96;102121.06;4937748;29;20055;-67
2021/12/20 03:26:37;;;;;;;35.50;25.65;;;;;;;6.41;83.23;102116.94;4935969;29;20055;-66
2021/12/20 03:29:05;;;;;;;41.85;28.48;;;;;;;6.42;82.78;102121.31;4938107;29;20052;-66
2021/12/20 03:31:32;;;;;;;37.55;26.38;;;;;;;5.90;84.60;102115.34;4937815;29;20062;-65
2021/12/20 03:34:00;;;;;;;36.63;26.15;;;;;;;6.07;84.22;102107.09;4938036;29;20059;-65
2021/12/20 03:36:27;;;;;;;36.33;26.17;;;;;;;6.25;84.05;102113.16;4937325;29;20052;-65
2021/12/20 03:38:55;;;;;;;37.58;26.75;;;;;;;6.22;84.19;102119.16;4936571;29;20040;-65
2021/12/20 03:41:22;;;;;;;35.55;24.65;;;;;;;6.24;83.44;102110.69;4936360;29;20047;-65
2021/12/20 03:43:50;;;;;;;36.53;24.85;;;;;;;6.16;83.52;102100.97;4952269;28;20047;-65
2021/12/20 03:46:17;;;;;;;37.83;25.08;;;;;;;6.28;83.64;102101.72;4936197;29;20067;-65
2021/12/20 03:48:45;;;;;;;36.25;25.75;;;;;;;6.29;83.54;102108.00;4936332;29;20051;-65
2021/12/20 03:51:12;;;;;;;34.40;24.60;;;;;;;6.26;83.27;102100.31;4936169;29;20064;-65
2021/12/20 03:53:39;;;;;;;36.13;25.13;;;;;;;6.21;82.96;102100.22;4938063;29;20531;-66
2021/12/20 03:56:07;;;;;;;38.13;26.48;;;;;;;6.28;83.28;102098.97;4937431;29;20495;-66
2021/12/20 03:58:35;;;;;;;37.35;25.67;;;;;;;6.29;83.24;102100.66;4937609;29;20055;-66
2021/12/20 04:01:05;;;;;;;37.05;25.38;;;;;;;6.32;82.97;102099.28;4936302;29;20176;-66
2021/12/20 04:03:35;;;;;;;39.72;25.20;;;;;;;5.99;83.83;102104.81;4924192;29;20131;-65
2021/12/20 04:06:04;;;;;;;34.22;24.38;;;;;;;6.06;84.22;102102.72;4918340;29;20052;-65
2021/12/20 04:08:31;;;;;;;36.30;24.35;;;;;;;6.15;83.42;102107.53;4918464;29;20052;-65
2021/12/20 04:10:59;;;;;;;40.75;27.60;;;;;;;5.97;84.01;102101.47;4918590;29;20060;-64
2021/12/20 04:13:27;;;;;;;36.67;25.00;;;;;;;6.09;84.11;102094.00;4920475;29;20064;-66
2021/12/20 04:15:54;;;;;;;40.65;26.23;;;;;;;6.07;83.79;102118.03;4921975;29;20056;-65
2021/12/20 04:18:23;;;;;;;37.13;25.65;;;;;;;5.98;83.90;102103.16;4921832;29;20060;-65
2021/12/20 04:20:50;;;;;;;37.28;25.15;;;;;;;5.94;84.24;102107.47;4921775;29;20056;-65
2021/12/20 04:23:18;;;;;;;35.03;24.40;;;;;;;6.12;83.60;102112.69;4920627;29;20527;-65
2021/12/20 04:25:45;;;;;;;34.38;24.52;;;;;;;6.05;83.31;102115.56;4921762;29;20048;-65
2021/12/20 04:28:12;;;;;;;36.20;24.30;;;;;;;5.96;83.33;102110.78;4921874;29;20381;-66
2021/12/20 04:30:40;;;;;;;37.58;25.92;;;;;;;5.92;83.35;102110.44;4921836;29;20491;-66
2021/12/20 04:33:07;;;;;;;37.40;25.77;;;;;;;5.88;84.62;102108.44;4920411;29;20147;-65
2021/12/20 04:35:35;;;;;;;36.53;24.33;;;;;;;5.92;84.16;102115.91;4921549;29;20523;-65
2021/12/20 04:38:03;;;;;;;36.20;25.00;;;;;;;6.04;84.14;102116.66;4921694;29;20056;-66
2021/12/20 04:40:30;;;;;;;40.60;26.77;;;;;;;6.03;84.26;102109.53;4921516;29;20055;-66
2021/12/20 04:42:59;;;;;;;41.15;26.67;;;;;;;6.18;84.05;102109.78;4921575;29;20060;-65
2021/12/20 04:45:28;;;;;;;43.22;27.55;;;;;;;6.30;83.42;102113.22;4920060;29;20063;-65
2021/12/20 04:47:56;;;;;;;38.10;26.83;;;;;;;6.22;83.23;102105.47;4921563;29;20052;-65
2021/12/20 04:50:24;;;;;;;41.70;27.27;;;;;;;5.99;84.33;102102.91;4920036;29;20051;-65
2021/12/20 04:52:54;;;;;;;41.22;27.83;;;;;;;5.83;84.78;102109.19;4921363;29;20059;-65
2021/12/20 04:55:23;;;;;;;41.88;28.75;;;;;;;6.05;84.95;102109.28;4921250;29;20060;-65
2021/12/20 04:57:50;;;;;;;41.90;28.48;;;;;;;6.06;85.07;102103.56;4921029;29;20492;-66
2021/12/20 05:00:21;;;;;;;41.83;28.02;;;;;;;6.08;84.09;102119.72;4921323;29;20060;-67
2021/12/20 05:02:48;;;;;;;39.58;26.95;;;;;;;5.95;84.52;102114.56;4927499;29;20054;-65
2021/12/20 05:05:18;;;;;;;45.05;29.20;;;;;;;6.06;85.00;102108.19;4939625;29;20063;-67
2021/12/20 05:07:46;;;;;;;42.47;28.85;;;;;;;6.15;84.37;102093.88;4939974;29;20052;-68
2021/12/20 05:10:25;;;;;;;41.67;28.05;;;;;;;6.20;84.04;102110.34;4940081;29;20509;-66
2021/12/20 05:13:00;;;;;;;44.08;27.90;;;;;;;6.31;83.43;102103.13;4940211;29;20051;-67
2021/12/20 05:15:28;;;;;;;45.53;29.33;;;;;;;6.17;84.27;102110.84;4938975;29;20055;-66
2021/12/20 05:17:56;;;;;;;41.30;28.23;;;;;;;6.22;83.91;102107.38;4939206;29;20059;-66
2021/12/20 05:20:24;;;;;;;41.38;28.13;;;;;;;6.17;84.00;102115.50;4939678;29;20050;-65
2021/12/20 05:22:52;;;;;;;42.40;28.08;;;;;;;6.00;84.24;102118.22;4938150;29;20051;-66
2021/12/20 05:25:20;;;;;;;41.83;28.25;;;;;;;5.97;85.17;102109.69;4938331;29;20047;-66
2021/12/20 05:27:47;;;;;;;42.38;27.48;;;;;;;5.82;85.56;102115.72;4954274;28;20055;-66
2021/12/20 05:30:15;;;;;;;40.75;27.00;;;;;;;5.90;85.43;102111.75;4938731;29;20051;-66
2021/12/20 05:32:43;;;;;;;43.22;27.38;;;;;;;5.86;85.50;102110.63;4922662;29;20463;-66
2021/12/20 05:35:12;;;;;;;39.65;26.45;;;;;;;5.95;85.01;102109.94;4939693;29;20495;-66
2021/12/20 05:37:40;;;;;;;42.20;27.00;;;;;;;5.84;85.58;102110.84;4922636;29;20044;-67
2021/12/20 05:40:09;;;;;;;38.95;25.33;;;;;;;6.02;84.78;102110.59;4939514;29;20427;-65
2021/12/20 05:42:37;;;;;;;40.40;26.40;;;;;;;6.03;84.82;102106.81;4938393;29;20055;-66
2021/12/20 05:45:05;;;;;;;41.40;26.67;;;;;;;6.17;84.71;102104.56;4939661;29;20059;-66
2021/12/20 05:47:32;;;;;;;39.40;25.75;;;;;;;6.25;83.29;102104.94;4937938;29;20536;-66
2021/12/20 05:50:00;;;;;;;39.60;26.10;;;;;;;6.19;83.96;102107.88;4939093;29;20051;-67
2021/12/20 05:52:28;;;;;;;38.88;25.73;;;;;;;6.31;83.60;102103.94;4939139;29;20063;-66
2021/12/20 05:54:55;;;;;;;42.40;27.65;;;;;;;6.31;83.14;102108.59;4937727;29;20074;-66
2021/12/20 05:57:22;;;;;;;44.35;26.95;;;;;;;6.47;82.68;102111.28;4938990;29;20074;-66
2021/12/20 05:59:50;;;;;;;37.78;25.45;;;;;;;6.55;82.35;102112.78;4937190;29;20052;-66
2021/12/20 06:02:17;;;;;;;39.45;26.02;;;;;;;6.50;81.51;102107.22;4934373;29;20500;-65
2021/12/20 06:04:50;;;;;;;39.28;24.70;;;;;;;6.40;81.99;102113.38;4918992;29;20056;-66
2021/12/20 06:07:19;;;;;;;35.35;22.90;;;;;;;6.18;82.65;102103.47;4919837;29;20059;-66
2021/12/20 06:09:47;;;;;;;36.58;24.02;;;;;;;6.07;82.98;102118.03;4903043;29;20052;-65
2021/12/20 06:12:15;;;;;;;34.65;23.05;;;;;;;6.14;82.99;102108.59;4902867;29;20067;-66
2021/12/20 06:14:42;;;;;;;39.72;23.48;;;;;;;6.17;82.54;102110.03;4918445;29;20052;-67
2021/12/20 06:17:10;;;;;;;35.65;22.77;;;;;;;6.08;82.50;102115.09;4920444;29;20063;-65
2021/12/20 06:19:37;;;;;;;35.03;22.98;;;;;;;5.91;82.58;102113.44;4919784;29;20048;-66
2021/12/20 06:22:04;;;;;;;32.97;21.60;;;;;;;5.92;82.92;102107.72;4918551;29;20052;-66
2021/12/20 06:24:31;;;;;;;31.48;20.98;;;;;;;5.99;82.77;102108.38;4919721;29;20052;-66
2021/12/20 06:26:59;;;;;;;35.25;22.98;;;;;;;6.01;82.36;102117.16;4919673;29;20052;-66
2021/12/20 06:29:26;;;;;;;37.47;22.33;;;;;;;6.02;83.15;102117.97;4918581;29;20071;-65
2021/12/20 06:31:54;;;;;;;36.10;21.85;;;;;;;5.94;82.69;102112.94;4919818;29;20055;-65
2021/12/20 06:34:21;;;;;;;36.13;22.67;;;;;;;6.13;82.26;102114.31;4919582;29;20066;-65
2021/12/20 06:36:48;;;;;;;36.08;21.35;;;;;;;6.04;82.20;102127.59;4918721;29;20044;-65
2021/12/20 06:39:16;;;;;;;34.75;21.63;;;;;;;6.00;82.27;102126.44;4919345;29;20056;-66
2021/12/20 06:41:44;;;;;;;35.55;21.98;;;;;;;6.01;82.42;102130.84;4918168;29;20052;-67
2021/12/20 06:44:11;;;;;;;35.95;21.48;;;;;;;6.03;82.22;102123.22;4919642;29;20064;-66
2021/12/20 06:46:40;;;;;;;35.25;20.45;;;;;;;6.24;81.34;102129.84;4919383;29;20056;-66
2021/12/20 06:49:12;;;;;;;33.88;20.48;;;;;;;6.18;80.67;102125.34;4887838;29;20047;-66
2021/12/20 06:51:42;;;;;;;32.55;18.80;;;;;;;6.16;80.39;102133.81;4919351;29;20048;-66
2021/12/20 06:54:12;;;;;;;33.42;18.85;;;;;;;5.97;81.37;102148.81;4918132;29;20397;-66
2021/12/20 06:56:42;;;;;;;32.60;19.13;;;;;;;6.04;81.19;102143.16;4917780;29;20064;-68
2021/12/20 06:59:10;;;;;;;31.27;18.48;;;;;;;6.05;80.91;102134.72;4919401;29;20060;-67
2021/12/20 07:01:38;;;;;;;36.25;19.58;;;;;;;6.16;80.59;102144.75;4919313;29;20055;-68
2021/12/20 07:04:05;;;;;;;32.17;17.90;;;;;;;6.03;80.32;102147.84;4936630;29;20081;-66
2021/12/20 07:06:34;;;;;;;34.65;20.60;;;;;;;5.99;80.63;102140.34;4937933;29;20435;-66
2021/12/20 07:09:01;;;;;;;33.17;18.58;;;;;;;5.88;81.33;102142.09;4938121;29;20059;-67
2021/12/20 07:11:29;;;;;;;29.98;18.08;;;;;;;5.88;81.14;102144.81;4937986;29;20047;-67
2021/12/20 07:13:56;;;;;;;32.38;18.92;;;;;;;5.79;81.88;102149.00;4936296;29;20059;-67
2021/12/20 07:16:24;;;;;;;33.90;18.50;;;;;;;5.79;81.31;102140.81;4952190;29;20063;-67
2021/12/20 07:18:51;;;;;;;34.30;19.65;;;;;;;5.79;81.85;102146.28;4937994;29;20423;-66
2021/12/20 07:21:19;;;;;;;31.10;18.60;;;;;;;5.88;81.71;102144.81;4937660;29;20055;-67
2021/12/20 07:23:46;;;;;;;38.55;20.63;;;;;;;5.89;81.58;102143.78;4937649;29;20074;-66
2021/12/20 07:26:13;;;;;;;35.15;19.08;;;;;;;6.09;80.56;102141.34;4937946;29;20036;-66
2021/12/20 07:28:42;;;;;;;33.00;19.23;;;;;;;6.18;80.40;102133.56;4936235;29;20059;-66
2021/12/20 07:31:10;;;;;;;33.35;19.92;;;;;;;6.33;79.42;102142.81;4936538;29;20055;-66
2021/12/20 07:33:38;;;;;;;33.97;19.30;;;;;;;6.09;79.97;102138.63;4935823;29;20051;-65
2021/12/20 07:36:05;;;;;;;33.65;20.85;;;;;;;5.92;80.74;102140.53;4936238;29;20152;-66
2021/12/20 07:38:37;;;;;;;33.63;21.10;;;;;;;5.95;80.49;102140.03;4937346;29;20055;-66
2021/12/20 07:41:04;;;;;;;33.13;21.58;;;;;;;5.99;80.90;102135.72;4951884;29;20047;-66
2021/12/20 07:43:31;;;;;;;33.38;20.70;;;;;;;6.01;80.52;102138.22;4938147;29;20055;-64
2021/12/20 07:45:59;;;;;;;33.70;20.13;;;;;;;5.88;81.22;102144.00;4936494;29;20044;-66
2021/12/20 07:48:26;;;;;;;34.42;20.73;;;;;;;5.91;81.25;102147.06;4941376;29;20491;-66
2021/12/20 07:50:53;;;;;;;32.85;21.85;;;;;;;5.94;81.09;102141.13;4939656;29;20055;-66
2021/12/20 07:53:21;;;;;;;35.80;22.83;;;;;;;5.92;80.66;102146.00;4939682;29;20070;-65
2021/12/20 07:55:48;;;;;;;34.00;21.38;;;;;;;5.94;80.93;102141.13;4940893;29;20062;-65
2021/12/20 07:58:15;;;;;;;35.05;21.75;;;;;;;6.02;80.71;102137.13;4941219;29;20051;-65
2021/12/20 08:00:43;;;;;;;37.33;23.23;;;;;;;6.02;81.22;102142.59;4939961;29;20058;-67
2021/12/20 08:03:10;;;;;;;32.20;20.35;;;;;;;6.13;80.56;102150.72;4931098;29;20064;-65
2021/12/20 08:05:38;;;;;;;34.97;21.25;;;;;;;6.06;80.50;102151.97;4922623;29;20507;-65
2021/12/20 08:08:06;;;;;;;32.03;18.08;;;;;;;6.02;80.40;102153.53;4920769;29;20428;-66
2021/12/20 08:10:34;;;;;;;31.15;19.33;;;;;;;5.97;80.74;102145.25;4921097;29;20066;-65
2021/12/20 08:13:01;;;;;;;30.45;19.98;;;;;;;5.81;80.49;102144.13;4921109;29;20056;-65
2021/12/20 08:15:28;;;;;;;33.28;19.88;;;;;;;5.96;80.82;102149.06;4920995;29;20055;-65
2021/12/20 08:17:57;;;;;;;33.40;19.70;;;;;;;6.06;80.36;102146.50;4920615;29;20071;-65
2021/12/20 08:20:24;;;;;;;31.42;21.23;;;;;;;6.08;80.09;102156.13;4920411;29;20060;-66
2021/12/20 08:22:52;;;;;;;33.20;20.15;;;;;;;5.90;80.29;102160.97;4920754;29;20055;-65
2021/12/20 08:25:19;;;;;;;32.72;20.95;;;;;;;5.90;80.66;102164.56;4921996;29;20052;-65
2021/12/20 08:27:49;;;;;;;32.25;20.67;;;;;;;5.86;80.27;102166.13;4921788;29;20071;-66
2021/12/20 08:30:17;;;;;;;35.80;21.73;;;;;;;5.98;80.65;102164.13;4920635;29;20056;-65
2021/12/20 08:32:44;;;;;;;31.13;19.88;;;;;;;5.83;80.63;102171.25;4921825;29;20048;-66
2021/12/20 08:35:12;;;;;;;32.85;20.70;;;;;;;5.98;80.69;102172.34;4921543;29;20067;-65
2021/12/20 08:37:41;;;;;;;34.67;21.42;;;;;;;5.96;80.56;102176.41;4921763;29;20059;-66
2021/12/20 08:40:11;;;;;;;35.22;20.92;;;;;;;6.03;80.12;102174.34;4921624;29;20059;-67
2021/12/20 08:42:39;;;;;;;31.55;19.35;;;;;;;6.01;79.51;102174.59;4920560;29;20448;-66
2021/12/20 08:45:08;;;;;;;33.60;20.30;;;;;;;6.00;79.20;102178.41;4921701;29;20060;-65
2021/12/20 08:47:35;;;;;;;35.38;21.25;;;;;;;6.16;78.62;102179.47;4921336;29;20052;-66
2021/12/20 08:50:05;;;;;;;35.10;21.92;;;;;;;6.29;77.66;102179.16;4921213;29;20063;-65
2021/12/20 08:52:32;;;;;;;36.13;20.13;;;;;;;6.16;78.11;102179.47;4921365;29;20126;-66
2021/12/20 08:55:00;;;;;;;37.75;23.83;;;;;;;6.02;78.19;102189.09;4921307;29;20071;-67
2021/12/20 08:57:27;;;;;;;35.65;22.75;;;;;;;6.05;78.43;102178.47;4920124;29;20055;-66
2021/12/20 08:59:54;;;;;;;35.03;21.38;;;;;;;6.06;78.26;102182.03;4919265;29;20487;-65
2021/12/20 09:02:21;;;;;;;36.47;20.52;;;;;;;6.01;77.90;102195.63;4924036;29;20048;-66
2021/12/20 09:04:49;;;;;;;36.65;21.42;;;;;;;6.03;77.42;102185.28;4940103;29;20055;-65
2021/12/20 09:07:17;;;;;;;34.47;20.23;;;;;;;6.02;77.64;102187.19;4940282;29;20059;-66
2021/12/20 09:09:46;;;;;;;34.40;20.17;;;;;;;5.94;77.45;102201.28;4954517;28;20047;-67
2021/12/20 09:12:18;;;;;;;32.30;20.45;;;;;;;5.77;77.64;102194.91;4923261;29;20549;-66
2021/12/20 09:14:46;;;;;;;33.88;19.98;;;;;;;6.01;77.76;102191.00;4954579;28;20056;-65
2021/12/20 09:17:15;;;;;;;35.60;20.05;;;;;;;6.10;76.99;102189.50;4938549;29;20062;-66
2021/12/20 09:19:42;;;;;;;33.60;20.48;;;;;;;6.11;76.88;102184.88;4939687;29;20133;-65
2021/12/20 09:22:11;;;;;;;35.20;20.05;;;;;;;6.21;76.91;102188.59;4938507;29;20052;-66
2021/12/20 09:24:40;;;;;;;34.63;20.70;;;;;;;6.14;76.52;102187.94;4954323;28;20500;-66
2021/12/20 09:27:08;;;;;;;35.05;20.90;;;;;;;6.17;76.82;102192.09;4939722;29;20158;-64
2021/12/20 09:29:36;;;;;;;33.13;20.33;;;;;;;6.34;75.73;102192.91;4938651;29;20067;-66
2021/12/20 09:32:04;;;;;;;35.40;20.83;;;;;;;6.23;75.47;102194.66;4939885;29;20074;-65
2021/12/20 09:34:32;;;;;;;34.40;20.10;;;;;;;6.26;75.58;102193.34;4937879;29;20090;-65
2021/12/20 09:37:04;;;;;;;30.67;19.27;;;;;;;6.40;74.92;102184.53;4938031;29;20141;-65
2021/12/20 09:39:33;;;;;;;30.95;18.92;;;;;;;6.43;74.70;102194.16;4939386;29;20047;-66
2021/12/20 09:42:00;;;;;;;36.28;20.38;;;;;;;6.38;74.69;102199.56;4939787;29;20036;-66
2021/12/20 09:44:29;;;;;;;31.00;19.48;;;;;;;6.31;74.88;102198.91;4954201;29;20056;-67
2021/12/20 09:46:59;;;;;;;35.00;20.53;;;;;;;6.41;74.82;102197.16;4939542;29;20383;-66
2021/12/20 09:49:28;;;;;;;35.17;20.73;;;;;;;6.60;74.08;102194.97;4937778;29;20059;-65
2021/12/20 09:51:57;;;;;;;33.28;19.33;;;;;;;6.28;74.39;102200.22;4939494;29;20395;-65
2021/12/20 09:54:26;;;;;;;36.27;20.40;;;;;;;6.10;75.06;102202.38;4939387;29;20063;-66
2021/12/20 09:56:55;;;;;;;35.17;20.30;;;;;;;6.00;75.98;102199.47;4937620;29;20326;-66
2021/12/20 09:59:24;;;;;;;34.00;20.63;;;;;;;6.04;76.01;102197.88;4937245;29;20056;-66
2021/12/20 10:01:53;;;;;;;49.22;31.17;;;;;;;6.08;76.07;102196.31;4953755;29;20043;-65
2021/12/20 10:04:22;;;;;;;31.33;20.33;;;;;;;6.42;75.17;102197.97;4918892;29;20555;-65
2021/12/20 10:06:56;;;;;;;36.50;20.77;;;;;;;6.53;74.65;102195.16;4918927;29;20056;-67
2021/12/20 10:09:30;;;;;;;30.90;20.02;;;;;;;6.52;73.83;102192.66;4919676;29;20067;-66
2021/12/20 10:12:15;;;;;;;30.52;18.77;;;;;;;6.47;74.20;102206.25;4919549;29;20071;-66
2021/12/20 10:15:01;;;;;;;31.92;19.90;;;;;;;6.45;74.57;102201.03;4918624;29;20060;-67
2021/12/20 10:17:51;;;;;;;33.47;19.90;;;;;;;6.48;73.93;102206.03;4919774;29;20052;-66
2021/12/20 10:20:20;;;;;;;;;;;;;;;6.23;74.65;102204.75;4920153;29;20514;-67
2021/12/20 10:22:47;;;;;;;31.67;20.08;;;;;;;6.28;75.02;102202.94;4919822;29;19923;-67
2021/12/20 10:25:21;;;;;;;29.92;18.95;;;;;;;6.43;74.47;102188.69;4919680;29;20059;-66
2021/12/20 10:27:49;;;;;;;30.67;19.58;;;;;;;6.31;74.25;102194.22;4919863;29;20056;-67
2021/12/20 10:30:41;;;;;;;29.60;18.33;;;;;;;6.26;74.83;102187.88;4919951;29;20073;-67
2021/12/20 10:33:11;;;;;;;30.17;18.45;;;;;;;6.42;74.41;102189.75;4919687;29;20050;-66
2021/12/20 10:35:52;;;;;;;26.38;16.88;;;;;;;6.52;73.69;102193.47;4919704;29;20056;-67
2021/12/20 10:38:27;;;;;;;33.65;20.45;;;;;;;6.37;74.24;102200.63;4918292;29;20071;-70
2021/12/20 10:40:55;;;;;;;26.02;16.85;;;;;;;6.30;73.72;102189.00;4919523;29;20407;-67
2021/12/20 10:43:34;;;;;;;31.60;17.70;;;;;;;6.27;73.89;102184.03;4919433;29;20048;-66
2021/12/20 10:46:20;;;;;;;26.88;16.40;;;;;;;6.43;73.55;102180.47;4919508;29;20056;-66
2021/12/20 10:48:51;;;;;;;25.08;16.98;;;;;;;6.51;73.52;102185.50;4919144;29;20551;-67
2021/12/20 10:51:20;;;;;;;26.48;15.73;;;;;;;6.36;73.69;102188.03;4919309;29;20658;-66
2021/12/20 10:53:57;;;;;;;25.45;16.15;;;;;;;6.25;74.19;102181.56;4919418;29;20052;-67
2021/12/20 10:56:27;;;;;;;26.27;15.38;;;;;;;6.39;73.69;102182.88;4919322;29;20167;-67
2021/12/20 10:58:54;;;;;;;28.02;17.77;;;;;;;6.43;73.42;102178.53;4901662;29;20064;-66
2021/12/20 11:04:33;;;;;;;27.20;16.85;;;;;;;6.52;72.95;102176.25;4907393;29;20067;-68
2021/12/20 11:09:42;;;;;;;23.63;13.95;;;;;;;6.66;72.50;102177.50;4918675;29;20059;-67
2021/12/20 11:12:11;;;;;;;20.90;13.35;;;;;;;6.52;72.63;102176.25;4919123;29;20063;-67
2021/12/20 11:14:47;;;;;;;19.05;13.52;;;;;;;6.27;73.57;102171.19;4934096;29;20064;-66
2021/12/20 11:17:19;;;;;;;22.30;13.50;;;;;;;6.15;74.41;102172.34;4918997;29;20059;-66
2021/12/20 11:19:54;;;;;;;26.80;13.38;;;;;;;6.20;74.72;102161.50;4918863;29;20053;-67
2021/12/20 11:22:29;;;;;;;23.17;13.10;;;;;;;6.36;74.73;102166.13;4918642;29;20048;-68
2021/12/20 11:25:07;;;;;;;27.75;14.52;;;;;;;6.36;73.99;102161.47;4917501;29;20063;-66
2021/12/20 11:27:37;;;;;;;30.20;15.30;;;;;;;6.40;74.26;102161.78;4918633;29;20166;-67
2021/12/20 11:30:08;;;;;;;24.30;13.98;;;;;;;6.15;73.62;102158.69;4918728;29;20048;-68
2021/12/20 11:32:36;;;;;;;17.35;9.98;;;;;;;6.08;73.85;102152.53;4918822;29;20056;-68
2021/12/20 11:35:04;;;;;;;14.93;9.90;;;;;;;6.37;72.96;102154.94;4918952;29;20063;-67
2021/12/20 11:37:31;;;;;;;17.77;9.95;;;;;;;6.20;72.65;102151.38;4917436;29;20056;-68
2021/12/20 11:40:03;;;;;;;18.27;9.43;;;;;;;6.30;72.68;102150.69;4918585;29;20522;-67
2021/12/20 11:42:30;;;;;;;15.20;9.30;;;;;;;6.30;72.63;102153.44;4933227;29;20468;-67
2021/12/20 11:45:00;;;;;;;20.77;10.55;;;;;;;6.19;73.19;102141.50;4918821;29;20057;-67
2021/12/20 11:47:34;;;;;;;17.95;10.45;;;;;;;6.13;72.92;102134.31;4918754;29;20504;-68